Time;durP1;ratioP1;P1;durP2;ratioP2;P2;SDS_P1;SDS_P2;PMS_P1;PMS_P2;Temp;Humidity;BMP_temperature;BMP_pressure;BME280_temperature;BME280_humidity;BME280_pressure;Samples;Min_cycle;Max_cycle;Signal;HPM_P1;HPM_P2
2022/08/05 00:01:39;;;;;;;;;;;;;;;29.18;37.08;100852.20;104855;1302;62127;-85
2022/08/05 00:04:05;;;;;;;;;;;;;;;29.18;37.21;100852.40;104846;1302;62130;-85
2022/08/05 00:06:30;;;;;;;;;;;;;;;29.17;37.07;100852.97;104803;1305;63175;-85
2022/08/05 00:08:56;;;;;;;;;;;;;;;29.17;37.11;100851.00;104899;1304;62239;-86
2022/08/05 00:11:21;;;;;;;;;;;;;;;29.17;37.25;100851.88;105114;1302;62100;-86
2022/08/05 00:13:47;;;;;;;;;;;;;;;29.17;37.26;100850.63;104888;1302;62217;-86
2022/08/05 00:16:13;;;;;;;;;;;;;;;29.17;37.26;100848.45;104998;1302;62114;-85
2022/08/05 00:18:43;;;;;;;;;;;;;;;29.17;37.19;100843.64;104918;1303;62081;-85
2022/08/05 00:21:08;;;;;;;;;;;;;;;29.17;37.34;100845.73;104887;1302;63395;-85
2022/08/05 00:23:34;;;;;;;;;;;;;;;29.17;37.40;100841.80;104886;1302;62197;-85
2022/08/05 00:26:00;;;;;;;;;;;;;;;29.16;37.09;100842.04;104889;1302;62085;-85
2022/08/05 00:28:25;;;;;;;;;;;;;;;29.16;37.17;100844.92;104929;1302;62058;-86
2022/08/05 00:30:51;;;;;;;;;;;;;;;29.17;37.39;100843.80;105164;1302;62212;-85
2022/08/05 00:33:19;;;;;;;;;;;;;;;29.16;37.43;100840.40;105150;1302;62097;-86
2022/08/05 00:35:44;;;;;;;;;;;;;;;29.16;37.14;100839.38;105101;1302;72931;-85
2022/08/05 00:38:10;;;;;;;;;;;;;;;29.16;37.24;100839.69;104902;1302;62110;-85
2022/08/05 00:40:44;;;;;;;;;;;;;;;29.16;37.23;100837.30;104895;1302;62172;-85
2022/08/05 00:43:09;;;;;;;;;;;;;;;29.16;37.20;100835.73;104877;1302;61775;-85
2022/08/05 00:45:35;;;;;;;;;;;;;;;29.16;37.01;100834.81;105004;1302;63119;-88
2022/08/05 00:48:00;;;;;;;;;;;;;;;29.16;37.33;100837.20;104897;1302;62089;-88
2022/08/05 00:50:26;;;;;;;;;;;;;;;29.16;37.36;100836.11;104883;1302;60170;-86
2022/08/05 00:52:52;;;;;;;;;;;;;;;29.16;37.31;100833.40;104959;1302;62162;-86
2022/08/05 00:55:17;;;;;;;;;;;;;;;29.15;37.25;100832.15;104868;1303;62646;-82
2022/08/05 00:57:43;;;;;;;;;;;;;;;29.16;37.34;100829.73;105121;1302;62202;-83
2022/08/05 01:00:11;;;;;;;;;;;;;;;29.16;37.47;100829.41;104904;1302;62081;-83
2022/08/05 01:02:37;;;;;;;;;;;;;;;29.15;37.16;100826.16;104854;1303;62072;-83
2022/08/05 01:05:02;;;;;;;;;;;;;;;29.16;37.22;100825.61;104885;1302;62116;-83
2022/08/05 01:07:28;;;;;;;;;;;;;;;29.15;37.25;100823.11;105138;1302;63373;-82
2022/08/05 01:09:54;;;;;;;;;;;;;;;29.15;37.28;100822.22;104897;1302;62117;-83
2022/08/05 01:12:20;;;;;;;;;;;;;;;29.15;37.30;100821.73;105131;1302;61918;-83
2022/08/05 01:14:47;;;;;;;;;;;;;;;29.15;37.29;100823.85;104949;1302;62223;-82
2022/08/05 01:17:13;;;;;;;;;;;;;;;29.15;37.29;100824.93;105166;1302;62063;-83
2022/08/05 01:19:49;;;;;;;;;;;;;;;29.15;37.42;100825.17;104899;1302;62020;-84
2022/08/05 01:22:27;;;;;;;;;;;;;;;29.15;37.34;100823.88;104889;1302;76908;-84
2022/08/05 01:25:05;;;;;;;;;;;;;;;29.14;37.15;100822.85;105110;1302;62051;-85
2022/08/05 01:27:49;;;;;;;;;;;;;;;29.14;37.41;100823.40;104961;1301;61960;-84
2022/08/05 01:30:15;;;;;;;;;;;;;;;29.14;37.43;100822.30;105093;1302;72990;-85
2022/08/05 01:32:40;;;;;;;;;;;;;;;29.15;37.62;100820.64;104844;1302;62112;-84
2022/08/05 01:35:09;;;;;;;;;;;;;;;29.15;37.40;100821.36;105165;1302;62222;-84
2022/08/05 01:37:39;;;;;;;;;;;;;;;29.15;37.64;100820.27;105063;1301;60550;-84
2022/08/05 01:40:05;;;;;;;;;;;;;;;29.14;37.47;100821.60;105125;1302;72738;-85
2022/08/05 01:42:30;;;;;;;;;;;;;;;29.14;37.57;100825.37;105154;1302;62184;-84
2022/08/05 01:44:56;;;;;;;;;;;;;;;29.14;37.42;100824.45;104891;1302;62066;-84
2022/08/05 01:47:22;;;;;;;;;;;;;;;29.14;37.43;100822.86;104767;1302;62541;-85
2022/08/05 01:49:49;;;;;;;;;;;;;;;29.14;37.56;100819.77;104909;1302;62139;-85
2022/08/05 01:52:14;;;;;;;;;;;;;;;29.14;37.44;100820.30;104859;1302;62081;-84
2022/08/05 01:54:50;;;;;;;;;;;;;;;29.13;37.32;100815.67;104939;1302;62084;-84
2022/08/05 01:57:17;;;;;;;;;;;;;;;29.14;37.52;100816.37;105143;1301;61960;-85
2022/08/05 01:59:42;;;;;;;;;;;;;;;29.13;37.48;100812.11;104849;1302;61970;-84
2022/08/05 02:02:08;;;;;;;;;;;;;;;29.13;37.52;100813.77;105102;1302;63262;-84
2022/08/05 02:04:33;;;;;;;;;;;;;;;29.14;37.58;100816.61;104918;1302;62172;-83
2022/08/05 02:06:59;;;;;;;;;;;;;;;29.13;37.51;100815.75;104915;1302;62070;-83
2022/08/05 02:09:24;;;;;;;;;;;;;;;29.14;37.48;100815.69;105152;1302;62095;-84
2022/08/05 02:11:54;;;;;;;;;;;;;;;29.13;37.50;100812.45;104892;1302;62262;-84
2022/08/05 02:14:20;;;;;;;;;;;;;;;29.13;37.61;100810.29;104900;1302;72738;-84
2022/08/05 02:16:52;;;;;;;;;;;;;;;29.13;37.75;100807.98;104872;1302;62144;-84
2022/08/05 02:19:36;;;;;;;;;;;;;;;29.13;37.69;100810.11;104888;1302;62104;-84
2022/08/05 02:22:12;;;;;;;;;;;;;;;29.13;37.52;100808.52;105124;1302;62098;-84
2022/08/05 02:24:38;;;;;;;;;;;;;;;29.13;37.70;100806.91;105145;1300;72634;-84
2022/08/05 02:27:04;;;;;;;;;;;;;;;29.13;37.85;100804.36;105017;1302;62757;-84
2022/08/05 02:29:29;;;;;;;;;;;;;;;29.12;37.68;100807.65;104924;1302;62071;-84
2022/08/05 02:31:58;;;;;;;;;;;;;;;29.12;37.63;100808.57;104855;1302;62133;-84
2022/08/05 02:34:24;;;;;;;;;;;;;;;29.12;37.50;100809.11;104944;1302;62162;-86
2022/08/05 02:36:50;;;;;;;;;;;;;;;29.13;37.57;100812.17;104855;1302;62100;-85
2022/08/05 02:39:16;;;;;;;;;;;;;;;29.12;37.48;100810.61;104919;1301;62082;-84
2022/08/05 02:41:42;;;;;;;;;;;;;;;29.12;37.63;100810.75;105130;1302;62061;-85
2022/08/05 02:44:08;;;;;;;;;;;;;;;29.12;37.66;100814.21;104902;1303;62776;-84
2022/08/05 02:46:34;;;;;;;;;;;;;;;29.12;37.65;100816.22;105124;1302;63093;-85
2022/08/05 02:49:00;;;;;;;;;;;;;;;29.12;37.74;100818.92;105120;1302;62054;-85
2022/08/05 02:51:25;;;;;;;;;;;;;;;29.12;37.74;100822.90;104909;1302;62215;-84
2022/08/05 02:53:51;;;;;;;;;;;;;;;29.12;37.73;100820.42;105034;1301;61964;-84
2022/08/05 02:56:16;;;;;;;;;;;;;;;29.12;37.84;100820.98;105124;1302;62081;-84
2022/08/05 02:58:42;;;;;;;;;;;;;;;29.12;37.89;100817.88;105118;1300;62222;-86
2022/08/05 03:01:18;;;;;;;;;;;;;;;29.11;37.79;100818.64;104906;1302;62209;-85
2022/08/05 03:03:44;;;;;;;;;;;;;;;29.11;37.67;100819.75;104875;1302;62109;-85
2022/08/05 03:06:09;;;;;;;;;;;;;;;29.11;37.92;100823.56;104893;1302;62085;-84
2022/08/05 03:08:35;;;;;;;;;;;;;;;29.11;37.81;100828.61;104883;1303;62265;-84
2022/08/05 03:11:01;;;;;;;;;;;;;;;29.11;37.80;100825.94;104915;1302;62196;-84
2022/08/05 03:13:26;;;;;;;;;;;;;;;29.11;37.98;100830.63;105163;1302;62495;-84
2022/08/05 03:15:52;;;;;;;;;;;;;;;29.10;37.94;100832.11;105071;1302;62066;-85
2022/08/05 03:18:17;;;;;;;;;;;;;;;29.10;37.82;100830.65;104879;1303;62196;-84
2022/08/05 03:20:42;;;;;;;;;;;;;;;29.10;37.78;100835.00;105097;1302;62140;-84
2022/08/05 03:23:08;;;;;;;;;;;;;;;29.10;37.80;100836.65;104898;1302;62075;-85
2022/08/05 03:25:34;;;;;;;;;;;;;;;29.10;37.60;100831.98;104899;1302;62101;-84
2022/08/05 03:28:00;;;;;;;;;;;;;;;29.10;37.76;100830.48;104930;1303;62115;-84
2022/08/05 03:30:26;;;;;;;;;;;;;;;29.10;38.05;100829.40;104954;1302;72787;-85
2022/08/05 03:32:52;;;;;;;;;;;;;;;29.10;37.90;100831.03;104911;1302;62086;-84
2022/08/05 03:35:18;;;;;;;;;;;;;;;29.10;37.80;100830.32;104923;1303;62091;-84
2022/08/05 03:37:43;;;;;;;;;;;;;;;29.11;37.80;100833.38;105114;1302;62113;-84
2022/08/05 03:40:09;;;;;;;;;;;;;;;29.10;38.00;100833.92;104915;1303;62171;-84
2022/08/05 03:42:34;;;;;;;;;;;;;;;29.11;38.06;100832.46;104969;1302;62103;-85
2022/08/05 03:45:00;;;;;;;;;;;;;;;29.11;37.82;100828.83;104913;1302;76126;-85
2022/08/05 03:47:25;;;;;;;;;;;;;;;29.12;37.94;100834.02;104894;1303;62104;-85
2022/08/05 03:49:51;;;;;;;;;;;;;;;29.11;38.07;100833.30;104897;1302;62106;-84
2022/08/05 03:52:27;;;;;;;;;;;;;;;29.11;37.91;100837.11;104879;1302;59777;-85
2022/08/05 03:55:00;;;;;;;;;;;;;;;29.11;37.85;100844.00;105139;1302;76448;-84
2022/08/05 03:57:28;;;;;;;;;;;;;;;29.11;37.83;100842.73;105119;1302;59540;-87
2022/08/05 03:59:55;;;;;;;;;;;;;;;29.12;37.91;100848.33;105112;1301;62468;-84
2022/08/05 04:02:22;;;;;;;;;;;;;;;29.12;37.96;100844.11;105126;1302;62092;-85
2022/08/05 04:04:47;;;;;;;;;;;;;;;29.12;37.96;100847.94;104891;1302;61999;-84
2022/08/05 04:07:12;;;;;;;;;;;;;;;29.12;37.96;100848.83;104893;1303;62193;-84
2022/08/05 04:09:38;;;;;;;;;;;;;;;29.12;38.26;100848.48;105041;1301;62207;-85
2022/08/05 04:12:04;;;;;;;;;;;;;;;29.12;38.04;100850.80;104914;1302;62193;-85
2022/08/05 04:14:29;;;;;;;;;;;;;;;29.12;38.05;100845.91;104921;1302;62269;-85
2022/08/05 04:16:55;;;;;;;;;;;;;;;29.12;38.04;100847.17;104894;1302;72499;-82
2022/08/05 04:19:20;;;;;;;;;;;;;;;29.12;37.95;100842.98;105143;1302;62058;-82
2022/08/05 04:21:45;;;;;;;;;;;;;;;29.13;38.23;100839.86;104874;1303;62101;-83
2022/08/05 04:24:11;;;;;;;;;;;;;;;29.13;38.13;100838.57;104908;1302;62096;-83
2022/08/05 04:26:36;;;;;;;;;;;;;;;29.12;38.23;100834.33;104862;1303;63210;-82
2022/08/05 04:29:02;;;;;;;;;;;;;;;29.10;37.97;100835.17;104916;1302;62169;-84
2022/08/05 04:31:27;;;;;;;;;;;;;;;29.08;38.21;100833.05;104869;1302;62096;-84
2022/08/05 04:33:53;;;;;;;;;;;;;;;29.06;37.90;100827.27;104915;1302;62117;-84
2022/08/05 04:36:18;;;;;;;;;;;;;;;29.06;38.03;100827.34;104930;1302;62072;-85
2022/08/05 04:38:44;;;;;;;;;;;;;;;29.04;37.86;100827.52;105153;1302;62159;-84
2022/08/05 04:41:09;;;;;;;;;;;;;;;29.04;38.24;100827.20;104866;1302;61967;-84
2022/08/05 04:43:35;;;;;;;;;;;;;;;29.03;38.26;100828.02;105050;1302;62211;-84
2022/08/05 04:46:01;;;;;;;;;;;;;;;29.02;37.92;100826.87;104895;1302;62105;-84
2022/08/05 04:48:26;;;;;;;;;;;;;;;29.02;37.98;100828.48;104912;1302;62080;-85
2022/08/05 04:50:52;;;;;;;;;;;;;;;29.01;37.99;100829.48;104895;1302;62126;-84
2022/08/05 04:53:18;;;;;;;;;;;;;;;29.01;38.16;100829.31;104908;1302;62074;-84
2022/08/05 04:55:43;;;;;;;;;;;;;;;29.01;37.89;100823.91;104883;1302;62105;-84
2022/08/05 04:58:10;;;;;;;;;;;;;;;29.00;38.25;100826.66;104852;1302;62086;-84
2022/08/05 05:00:36;;;;;;;;;;;;;;;29.01;38.13;100823.39;104922;1302;62114;-85
2022/08/05 05:03:02;;;;;;;;;;;;;;;29.01;37.92;100824.25;104991;1302;62088;-84
2022/08/05 05:05:27;;;;;;;;;;;;;;;29.01;37.94;100823.85;104837;1302;60263;-85
2022/08/05 05:07:54;;;;;;;;;;;;;;;29.02;37.91;100823.24;104831;1302;62105;-82
2022/08/05 05:10:19;;;;;;;;;;;;;;;29.02;37.80;100823.21;104845;1302;62065;-82
2022/08/05 05:12:45;;;;;;;;;;;;;;;29.03;37.66;100818.98;105140;1302;62107;-83
2022/08/05 05:15:10;;;;;;;;;;;;;;;29.03;38.03;100819.85;104813;1302;76737;-82
2022/08/05 05:17:39;;;;;;;;;;;;;;;29.03;37.96;100815.91;104755;1302;62120;-84
2022/08/05 05:20:05;;;;;;;;;;;;;;;29.03;37.79;100816.12;104858;1302;60814;-84
2022/08/05 05:22:30;;;;;;;;;;;;;;;29.03;37.62;100814.83;105060;1302;62302;-84
2022/08/05 05:24:56;;;;;;;;;;;;;;;29.03;37.88;100813.92;104982;1302;62187;-84
2022/08/05 05:27:21;;;;;;;;;;;;;;;29.03;38.06;100814.42;104749;1302;62238;-84
2022/08/05 05:29:47;;;;;;;;;;;;;;;29.04;37.69;100814.52;104675;1302;62086;-83
2022/08/05 05:32:14;;;;;;;;;;;;;;;29.04;37.79;100813.42;104721;1302;62033;-84
2022/08/05 05:34:39;;;;;;;;;;;;;;;29.05;37.82;100814.41;104707;1302;72928;-84
2022/08/05 05:37:05;;;;;;;;;;;;;;;29.06;37.86;100814.09;105060;1302;62109;-84
2022/08/05 05:39:30;;;;;;;;;;;;;;;29.07;37.65;100813.41;105044;1302;62059;-84
2022/08/05 05:41:56;;;;;;;;;;;;;;;29.08;37.65;100815.28;104718;1303;62109;-84
2022/08/05 05:44:21;;;;;;;;;;;;;;;29.09;37.72;100812.85;104727;1302;62157;-83
2022/08/05 05:46:47;;;;;;;;;;;;;;;29.11;37.66;100815.06;104732;1303;62643;-84
2022/08/05 05:49:12;;;;;;;;;;;;;;;29.12;37.58;100812.79;104827;1302;62136;-84
2022/08/05 05:51:38;;;;;;;;;;;;;;;29.12;37.61;100811.25;104692;1302;62169;-84
2022/08/05 05:54:03;;;;;;;;;;;;;;;29.14;37.56;100812.73;104617;1302;62608;-84
2022/08/05 05:56:29;;;;;;;;;;;;;;;29.15;37.71;100817.02;104967;1302;62196;-83
2022/08/05 05:58:55;;;;;;;;;;;;;;;29.15;37.77;100819.85;104560;1303;74267;-84
2022/08/05 06:01:20;;;;;;;;;;;;;;;29.16;37.65;100819.81;104688;1303;62070;-84
2022/08/05 06:03:46;;;;;;;;;;;;;;;29.17;37.59;100823.23;104917;1302;59495;-83
2022/08/05 06:06:12;;;;;;;;;;;;;;;29.18;37.34;100824.61;104677;1302;62081;-84
2022/08/05 06:08:37;;;;;;;;;;;;;;;29.19;37.36;100819.05;104743;1302;62219;-84
2022/08/05 06:11:03;;;;;;;;;;;;;;;29.20;37.35;100817.15;105070;1302;62202;-82
2022/08/05 06:13:28;;;;;;;;;;;;;;;29.21;37.32;100817.99;104771;1303;62155;-84
2022/08/05 06:15:54;;;;;;;;;;;;;;;29.21;37.35;100816.30;104858;1303;62175;-84
2022/08/05 06:18:20;;;;;;;;;;;;;;;29.22;37.33;100818.00;105105;1302;62103;-82
2022/08/05 06:20:45;;;;;;;;;;;;;;;29.22;37.04;100820.35;104809;1303;62232;-83
2022/08/05 06:23:10;;;;;;;;;;;;;;;29.23;37.16;100826.30;104907;1303;62147;-84
2022/08/05 06:25:36;;;;;;;;;;;;;;;29.23;36.99;100827.14;105092;1302;74486;-84
2022/08/05 06:28:01;;;;;;;;;;;;;;;29.23;37.16;100828.30;103873;1303;1377688;-83
2022/08/05 06:30:27;;;;;;;;;;;;;;;29.23;36.99;100827.19;104773;1302;62157;-83
2022/08/05 06:32:53;;;;;;;;;;;;;;;29.24;37.10;100831.64;104890;1302;61927;-83
2022/08/05 06:35:19;;;;;;;;;;;;;;;29.24;36.97;100826.30;104840;1302;62090;-83
2022/08/05 06:37:44;;;;;;;;;;;;;;;29.25;37.14;100826.95;104790;1303;62107;-84
2022/08/05 06:40:10;;;;;;;;;;;;;;;29.25;37.05;100828.20;105104;1302;62044;-84
2022/08/05 06:42:36;;;;;;;;;;;;;;;29.25;36.90;100828.18;105098;1302;61952;-84
2022/08/05 06:45:02;;;;;;;;;;;;;;;29.26;36.98;100827.05;104859;1303;62170;-84
2022/08/05 06:47:28;;;;;;;;;;;;;;;29.26;37.01;100824.85;104809;1302;62071;-84
2022/08/05 06:49:53;;;;;;;;;;;;;;;29.26;36.95;100826.82;104833;1302;62219;-83
2022/08/05 06:52:19;;;;;;;;;;;;;;;29.26;36.80;100821.21;104845;1303;62174;-85
2022/08/05 06:54:44;;;;;;;;;;;;;;;29.26;36.78;100826.52;104900;1303;62283;-84
2022/08/05 06:57:13;;;;;;;;;;;;;;;29.26;36.73;100826.88;104857;1303;62103;-84
2022/08/05 06:59:38;;;;;;;;;;;;;;;29.25;36.80;100823.52;104839;1303;75541;-85
2022/08/05 07:02:04;;;;;;;;;;;;;;;29.25;36.80;100822.10;105070;1302;62105;-84
2022/08/05 07:04:29;;;;;;;;;;;;;;;29.25;36.74;100824.23;104886;1302;62158;-84
2022/08/05 07:06:55;;;;;;;;;;;;;;;29.26;36.89;100821.07;105062;1302;62044;-85
2022/08/05 07:09:20;;;;;;;;;;;;;;;29.26;36.89;100818.86;105113;1302;62095;-83
2022/08/05 07:11:46;;;;;;;;;;;;;;;29.27;36.95;100818.27;104878;1302;73691;-84
2022/08/05 07:16:59;;;;;;;;;;;;;;;29.28;36.66;100811.13;104846;1302;62021;-84
2022/08/05 07:19:26;;;;;;;;;;;;;;;29.29;36.85;100813.94;105069;1302;72900;-84
2022/08/05 07:21:52;;;;;;;;;;;;;;;29.29;36.74;100811.02;105070;1302;74974;-84
2022/08/05 07:24:17;;;;;;;;;;;;;;;29.29;36.75;100811.95;104808;1303;62107;-82
2022/08/05 07:26:43;;;;;;;;;;;;;;;29.28;36.67;100806.40;105056;1302;62028;-84
2022/08/05 07:29:09;;;;;;;;;;;;;;;29.28;36.68;100809.49;104814;1303;62078;-83
2022/08/05 07:31:34;;;;;;;;;;;;;;;29.28;36.82;100812.52;104833;1303;62085;-84
2022/08/05 07:34:00;;;;;;;;;;;;;;;29.29;36.65;100813.23;104742;1303;62230;-82
2022/08/05 07:36:26;;;;;;;;;;;;;;;29.28;36.79;100813.05;104647;1302;62238;-84
2022/08/05 07:38:51;;;;;;;;;;;;;;;29.29;36.53;100807.36;104993;1302;62181;-82
2022/08/05 07:41:18;;;;;;;;;;;;;;;29.30;36.68;100807.13;104749;1302;62107;-82
2022/08/05 07:43:43;;;;;;;;;;;;;;;29.30;36.78;100812.02;104812;1303;62240;-82
2022/08/05 07:46:09;;;;;;;;;;;;;;;29.31;36.82;100812.09;104790;1303;62072;-82
2022/08/05 07:48:34;;;;;;;;;;;;;;;29.31;36.57;100812.94;104891;1302;62146;-83
2022/08/05 07:51:00;;;;;;;;;;;;;;;29.31;36.65;100808.77;104822;1303;62090;-82
2022/08/05 07:53:25;;;;;;;;;;;;;;;29.32;36.69;100808.90;104779;1302;62203;-83
2022/08/05 07:55:51;;;;;;;;;;;;;;;29.32;36.61;100805.47;104739;1303;63134;-84
2022/08/05 07:58:16;;;;;;;;;;;;;;;29.32;36.59;100806.34;104842;1302;62129;-84
2022/08/05 08:00:42;;;;;;;;;;;;;;;29.32;36.59;100803.66;105102;1302;62100;-84
2022/08/05 08:03:11;;;;;;;;;;;;;;;29.32;36.58;100805.96;104833;1302;62120;-83
2022/08/05 08:05:42;;;;;;;;;;;;;;;29.32;36.65;100806.72;105029;1302;72792;-84
2022/08/05 08:08:08;;;;;;;;;;;;;;;29.32;36.52;100804.55;104843;1303;76472;-84
2022/08/05 08:10:33;;;;;;;;;;;;;;;29.33;36.52;100801.94;104789;1302;62232;-84
2022/08/05 08:12:59;;;;;;;;;;;;;;;29.33;36.35;100803.16;104944;1302;62745;-84
2022/08/05 08:15:24;;;;;;;;;;;;;;;29.33;36.53;100808.05;104960;1302;62306;-84
2022/08/05 08:17:50;;;;;;;;;;;;;;;29.33;36.42;100804.06;104779;1302;62147;-84
2022/08/05 08:20:15;;;;;;;;;;;;;;;29.33;36.50;100800.10;104881;1302;62739;-84
2022/08/05 08:22:41;;;;;;;;;;;;;;;29.33;36.19;100799.85;104788;1302;62220;-84
2022/08/05 08:25:07;;;;;;;;;;;;;;;29.33;36.19;100798.39;104971;1302;62103;-84
2022/08/05 08:27:32;;;;;;;;;;;;;;;29.34;36.24;100795.10;104929;1302;62059;-83
2022/08/05 08:29:58;;;;;;;;;;;;;;;29.33;36.77;100800.23;104769;1302;62165;-85
2022/08/05 08:32:23;;;;;;;;;;;;;;;29.33;36.38;100795.70;105052;1302;62081;-86
2022/08/05 08:34:49;;;;;;;;;;;;;;;29.33;36.39;100789.52;104853;1303;62183;-85
2022/08/05 08:37:15;;;;;;;;;;;;;;;29.33;36.21;100786.09;104782;1303;62774;-83
2022/08/05 08:39:40;;;;;;;;;;;;;;;29.34;36.27;100789.63;104858;1303;61986;-82
2022/08/05 08:42:07;;;;;;;;;;;;;;;29.34;36.19;100785.11;104590;1303;62394;-83
2022/08/05 08:44:33;;;;;;;;;;;;;;;29.34;36.45;100780.98;104741;1303;62192;-82
2022/08/05 08:46:59;;;;;;;;;;;;;;;29.34;36.30;100780.73;104827;1303;62104;-82
2022/08/05 08:49:24;;;;;;;;;;;;;;;29.35;36.24;100777.77;104810;1303;62124;-84
2022/08/05 08:52:13;;;;;;;;;;;;;;;29.35;36.11;100777.03;104902;1302;62101;-85
2022/08/05 08:54:38;;;;;;;;;;;;;;;29.35;36.15;100771.22;104924;1302;76554;-83
2022/08/05 08:57:05;;;;;;;;;;;;;;;29.36;36.17;100769.66;104798;1302;62081;-84
2022/08/05 08:59:30;;;;;;;;;;;;;;;29.36;36.22;100764.23;105065;1302;62104;-83
2022/08/05 09:01:56;;;;;;;;;;;;;;;29.36;35.91;100768.54;104807;1302;62372;-84
2022/08/05 09:04:21;;;;;;;;;;;;;;;29.36;36.06;100764.89;104819;1303;62156;-84
2022/08/05 09:06:47;;;;;;;;;;;;;;;29.36;36.37;100764.16;104833;1302;62770;-84
2022/08/05 09:09:12;;;;;;;;;;;;;;;29.36;36.22;100764.88;104805;1302;62078;-84
2022/08/05 09:11:38;;;;;;;;;;;;;;;29.37;36.10;100764.13;104778;1303;62106;-84
2022/08/05 09:14:03;;;;;;;;;;;;;;;29.37;36.11;100763.16;104767;1303;62114;-83
2022/08/05 09:16:29;;;;;;;;;;;;;;;29.37;35.93;100761.02;104707;1302;63370;-84
2022/08/05 09:18:54;;;;;;;;;;;;;;;29.38;35.87;100755.32;104805;1302;62139;-83
2022/08/05 09:21:21;;;;;;;;;;;;;;;29.38;36.14;100752.95;104931;1302;62013;-84
2022/08/05 09:23:48;;;;;;;;;;;;;;;29.38;35.96;100749.48;104875;1302;62046;-84
2022/08/05 09:26:18;;;;;;;;;;;;;;;29.38;36.11;100741.08;104646;1302;73790;-85
2022/08/05 09:28:45;;;;;;;;;;;;;;;29.39;36.30;100742.85;105209;1302;76418;-83
2022/08/05 09:31:11;;;;;;;;;;;;;;;29.39;36.14;100742.27;104933;1302;62669;-83
2022/08/05 09:33:49;;;;;;;;;;;;;;;29.39;36.15;100739.02;104694;1302;62120;-83
2022/08/05 09:36:15;;;;;;;;;;;;;;;29.39;36.37;100736.50;104906;1302;72728;-81
2022/08/05 09:39:06;;;;;;;;;;;;;;;29.40;36.34;100733.49;104775;1303;62146;-82
2022/08/05 09:41:32;;;;;;;;;;;;;;;29.40;36.29;100732.07;105016;1302;61942;-83
2022/08/05 09:43:57;;;;;;;;;;;;;;;29.40;36.34;100727.67;104817;1302;62157;-84
2022/08/05 09:46:30;;;;;;;;;;;;;;;29.40;36.39;100736.36;104701;1303;62164;-84
2022/08/05 09:49:00;;;;;;;;;;;;;;;29.40;36.41;100729.52;105060;1302;75514;-84
2022/08/05 09:51:33;;;;;;;;;;;;;;;29.40;36.35;100729.52;104833;1303;62122;-84
2022/08/05 09:53:58;;;;;;;;;;;;;;;29.40;36.47;100727.52;105086;1302;62176;-83
2022/08/05 09:56:25;;;;;;;;;;;;;;;29.39;36.29;100723.05;104758;1302;62043;-84
2022/08/05 09:58:57;;;;;;;;;;;;;;;29.39;36.36;100718.85;104882;1303;62108;-83
2022/08/05 10:01:23;;;;;;;;;;;;;;;29.39;36.53;100722.52;105090;1302;61999;-83
2022/08/05 10:03:54;;;;;;;;;;;;;;;29.39;36.34;100721.27;104795;1302;62066;-84
2022/08/05 10:06:20;;;;;;;;;;;;;;;29.39;36.23;100715.08;105136;1302;72747;-84
2022/08/05 10:08:45;;;;;;;;;;;;;;;29.39;36.41;100718.38;104881;1302;62062;-86
2022/08/05 10:11:15;;;;;;;;;;;;;;;29.38;36.26;100717.35;104898;1302;62098;-84
2022/08/05 10:13:41;;;;;;;;;;;;;;;29.39;36.45;100717.31;104904;1302;62397;-84
2022/08/05 10:16:06;;;;;;;;;;;;;;;29.38;36.56;100710.12;104866;1302;62282;-83
2022/08/05 10:18:32;;;;;;;;;;;;;;;29.38;36.31;100709.23;104827;1303;62260;-84
2022/08/05 10:21:00;;;;;;;;;;;;;;;29.39;36.49;100704.95;104730;1303;62097;-84
2022/08/05 10:23:32;;;;;;;;;;;;;;;29.39;36.40;100700.80;104779;1301;61955;-84
2022/08/05 10:25:59;;;;;;;;;;;;;;;29.39;36.70;100698.45;104669;1302;75569;-82
2022/08/05 10:28:24;;;;;;;;;;;;;;;29.39;36.50;100693.95;105389;1302;62068;-85
2022/08/05 10:30:50;;;;;;;;;;;;;;;29.39;36.39;100691.87;104720;1303;62089;-81
2022/08/05 10:33:16;;;;;;;;;;;;;;;29.39;36.55;100690.09;104893;1302;62078;-83
2022/08/05 10:35:41;;;;;;;;;;;;;;;29.39;36.54;100684.08;104599;1303;62190;-83
2022/08/05 10:38:07;;;;;;;;;;;;;;;29.40;36.52;100688.20;104914;1302;62229;-83
2022/08/05 10:40:42;;;;;;;;;;;;;;;29.40;36.83;100687.29;104658;1303;76350;-83
2022/08/05 10:43:26;;;;;;;;;;;;;;;29.40;36.77;100676.53;104661;1302;62077;-82
2022/08/05 10:45:56;;;;;;;;;;;;;;;29.40;36.84;100673.45;104878;1302;62194;-82
2022/08/05 10:48:28;;;;;;;;;;;;;;;29.41;36.65;100672.48;104987;1302;73878;-85
2022/08/05 10:50:58;;;;;;;;;;;;;;;29.41;36.73;100667.94;104902;1302;76764;-84
2022/08/05 10:53:37;;;;;;;;;;;;;;;29.41;36.90;100672.08;104777;1303;61993;-85
2022/08/05 10:56:04;;;;;;;;;;;;;;;29.41;36.64;100672.61;105111;1302;62063;-85
2022/08/05 10:58:30;;;;;;;;;;;;;;;29.41;36.65;100671.71;104789;1303;72828;-85
2022/08/05 11:00:55;;;;;;;;;;;;;;;29.42;36.74;100666.95;104881;1302;62102;-85
2022/08/05 11:03:21;;;;;;;;;;;;;;;29.42;36.56;100664.95;104887;1303;62159;-85
2022/08/05 11:06:03;;;;;;;;;;;;;;;29.42;36.57;100660.77;104891;1302;62049;-85
2022/08/05 11:08:28;;;;;;;;;;;;;;;29.42;36.66;100664.58;105107;1302;73839;-84
2022/08/05 11:10:53;;;;;;;;;;;;;;;29.42;36.70;100663.85;104680;1303;62117;-84
2022/08/05 11:13:40;;;;;;;;;;;;;;;29.41;36.56;100657.57;104753;1303;62099;-84
2022/08/05 11:16:35;;;;;;;;;;;;;;;29.41;36.85;100656.45;105049;1302;62005;-84
2022/08/05 11:19:20;;;;;;;;;;;;;;;29.41;36.77;100662.09;104946;1302;72715;-85
2022/08/05 11:21:45;;;;;;;;;;;;;;;29.42;36.81;100658.42;105077;1302;76681;-85
2022/08/05 11:24:11;;;;;;;;;;;;;;;29.42;36.69;100655.70;104892;1302;62060;-84
2022/08/05 11:26:36;;;;;;;;;;;;;;;29.42;36.53;100653.56;104678;1303;62098;-85
2022/08/05 11:29:03;;;;;;;;;;;;;;;29.42;36.65;100647.89;104946;1302;62239;-85
2022/08/05 11:31:31;;;;;;;;;;;;;;;29.42;36.61;100647.89;104997;1302;62006;-85
2022/08/05 11:34:01;;;;;;;;;;;;;;;29.42;36.72;100647.89;104801;1302;61976;-84
2022/08/05 11:36:30;;;;;;;;;;;;;;;29.42;36.80;100643.85;105072;1302;62067;-82
2022/08/05 11:38:55;;;;;;;;;;;;;;;29.42;36.76;100646.95;105063;1302;72860;-83
2022/08/05 11:41:21;;;;;;;;;;;;;;;29.42;36.63;100643.34;105089;1302;62092;-83
2022/08/05 11:43:56;;;;;;;;;;;;;;;29.43;36.80;100635.48;105132;1302;62078;-83
2022/08/05 11:46:32;;;;;;;;;;;;;;;29.42;36.72;100627.36;105132;1302;61389;-82
2022/08/05 11:48:58;;;;;;;;;;;;;;;29.43;36.71;100624.23;104900;1302;73791;-83
2022/08/05 11:51:24;;;;;;;;;;;;;;;29.43;36.87;100622.77;104827;1303;74514;-84
2022/08/05 11:53:50;;;;;;;;;;;;;;;29.43;36.89;100626.61;104881;1303;62105;-81
2022/08/05 11:56:15;;;;;;;;;;;;;;;29.42;36.63;100628.61;104906;1302;62092;-82
2022/08/05 11:58:41;;;;;;;;;;;;;;;29.42;36.89;100622.30;104870;1302;62091;-83
2022/08/05 12:01:07;;;;;;;;;;;;;;;29.42;36.96;100616.70;104891;1303;62047;-83
2022/08/05 12:03:58;;;;;;;;;;;;;;;29.42;36.67;100616.31;105140;1302;62088;-82
2022/08/05 12:06:24;;;;;;;;;;;;;;;29.42;36.87;100617.44;105142;1302;61963;-84
2022/08/05 12:08:56;;;;;;;;;;;;;;;29.42;36.83;100617.40;104928;1302;62027;-85
2022/08/05 12:11:23;;;;;;;;;;;;;;;29.42;36.69;100616.18;104880;1302;76607;-85
2022/08/05 12:13:58;;;;;;;;;;;;;;;29.42;36.92;100613.45;105166;1302;62066;-85
2022/08/05 12:16:24;;;;;;;;;;;;;;;29.42;36.76;100611.46;104894;1302;62233;-85
2022/08/05 12:18:50;;;;;;;;;;;;;;;29.42;36.88;100616.73;104862;1303;61986;-85
2022/08/05 12:21:17;;;;;;;;;;;;;;;29.42;36.67;100614.48;104877;1303;62089;-85
2022/08/05 12:24:02;;;;;;;;;;;;;;;29.43;36.80;100611.77;105130;1302;61955;-83
2022/08/05 12:26:37;;;;;;;;;;;;;;;29.43;36.90;100607.92;105122;1302;62049;-84
2022/08/05 12:29:07;;;;;;;;;;;;;;;29.43;36.85;100612.45;105132;1302;72903;-84